Startpagina
METAR-TAF:

METAR-TAF

Vliegvelden :

Aéroport de Paris-Beauvais-Tillé

Beauvais, Frankrijk

breedte: 49-28N, lengte: 002-07E, hoogte: 109 m

Actueel weer

Dit bericht is 21 minuten geleden gemaakt, om 22:00 UTC
Wind 8 kt uit het noorden
Temperatuur 14°C
Vochtigheid 77%
Druk 1024 hPa
Zicht 10 km of meer
geen wolken onder 1500 m en geen cumulonimbus

METAR: LFOB 242200Z AUTO 01008KT CAVOK 14/10 Q1024 NOSIG

Tijdstip: 00:21 (22:21 UTC)

Verwachting

Dit bericht is 5 uur en het 21 minuten geleden gemaakt, om 17:00 UTC
Verwachting geldig van 24 om 18 UTC tot 25 om 18 UTC
Wind 10 kt uit het noordnoordoosten
Zicht 10 km of meer
geen wolken onder 1500 m en geen cumulonimbus
Tijdelijke
van 25 om 07 UTC tot 25 om 09 UTC
Gebroken wolken op 1100 ft

TAF: LFOB 241700Z 2418/2518 02010KT CAVOK TEMPO 2507/2509 BKN011

Waarnemingen en weersverwachtingen van meer dan 4000 vliegvelden (METAR en TAF).

De beschikbare stations zijn de gele en rode punten op de kaart.

Ga met uw muis naar het station om de naam te zien.

Klik dan om waarnemingen en weersverwachtingen te zien.

kaart wijzigen: klik op de groene knoppen met een zwart kruis om in te zoomen, op de groene knop met een streepje om uit te zoomen of op de groene pijlen voor aangrenzende kaarten.


METAR-TAF: